sensor_id;sensor_type;location;lat;lon;timestamp;temperature;humidity
75489;HTU21D;64069;46.396;48.102;2023-05-02T00:00:29;14.08;102.02
75489;HTU21D;64069;46.396;48.102;2023-05-02T00:03:03;14.08;102.06
75489;HTU21D;64069;46.396;48.102;2023-05-02T00:05:30;14.07;102.09
75489;HTU21D;64069;46.396;48.102;2023-05-02T00:08:03;14.06;102.15
75489;HTU21D;64069;46.396;48.102;2023-05-02T00:10:35;14.06;102.27
75489;HTU21D;64069;46.396;48.102;2023-05-02T00:13:08;14.04;102.31
75489;HTU21D;64069;46.396;48.102;2023-05-02T00:15:34;14.04;102.38
75489;HTU21D;64069;46.396;48.102;2023-05-02T00:18:07;14.01;102.40
75489;HTU21D;64069;46.396;48.102;2023-05-02T00:20:39;14.01;102.44
75489;HTU21D;64069;46.396;48.102;2023-05-02T00:23:06;14.00;102.47
75489;HTU21D;64069;46.396;48.102;2023-05-02T00:25:47;13.99;102.54
75489;HTU21D;64069;46.396;48.102;2023-05-02T00:28:20;13.99;102.54
75489;HTU21D;64069;46.396;48.102;2023-05-02T00:30:46;13.97;102.57
75489;HTU21D;64069;46.396;48.102;2023-05-02T00:33:18;13.96;102.64
75489;HTU21D;64069;46.396;48.102;2023-05-02T00:35:50;13.95;102.69
75489;HTU21D;64069;46.396;48.102;2023-05-02T00:38:16;13.95;102.82
75489;HTU21D;64069;46.396;48.102;2023-05-02T00:40:49;13.94;102.83
75489;HTU21D;64069;46.396;48.102;2023-05-02T00:43:24;13.91;102.84
75489;HTU21D;64069;46.396;48.102;2023-05-02T00:45:50;13.89;102.88
75489;HTU21D;64069;46.396;48.102;2023-05-02T00:48:24;13.84;102.92
75489;HTU21D;64069;46.396;48.102;2023-05-02T00:50:57;13.82;102.93
75489;HTU21D;64069;46.396;48.102;2023-05-02T00:53:23;13.81;102.99
75489;HTU21D;64069;46.396;48.102;2023-05-02T00:55:57;13.83;102.99
75489;HTU21D;64069;46.396;48.102;2023-05-02T00:58:30;13.84;102.93
75489;HTU21D;64069;46.396;48.102;2023-05-02T01:01:25;13.84;102.91
75489;HTU21D;64069;46.396;48.102;2023-05-02T01:04:25;13.85;102.84
75489;HTU21D;64069;46.396;48.102;2023-05-02T01:13:10;13.82;102.69
75489;HTU21D;64069;46.396;48.102;2023-05-02T01:15:43;13.78;102.67
75489;HTU21D;64069;46.396;48.102;2023-05-02T01:18:21;13.74;102.74
75489;HTU21D;64069;46.396;48.102;2023-05-02T01:21:00;13.71;102.80
75489;HTU21D;64069;46.396;48.102;2023-05-02T01:27:26;13.60;102.86
75489;HTU21D;64069;46.396;48.102;2023-05-02T01:29:36;13.55;102.86
75489;HTU21D;64069;46.396;48.102;2023-05-02T01:32:11;13.49;102.90
75489;HTU21D;64069;46.396;48.102;2023-05-02T01:34:39;13.45;102.92
75489;HTU21D;64069;46.396;48.102;2023-05-02T01:37:14;13.40;102.96
75489;HTU21D;64069;46.396;48.102;2023-05-02T01:39:50;13.37;102.96
75489;HTU21D;64069;46.396;48.102;2023-05-02T01:42:24;13.31;102.92
75489;HTU21D;64069;46.396;48.102;2023-05-02T01:44:53;13.25;102.91
75489;HTU21D;64069;46.396;48.102;2023-05-02T01:47:26;13.19;102.93
75489;HTU21D;64069;46.396;48.102;2023-05-02T01:50:02;13.14;102.95
75489;HTU21D;64069;46.396;48.102;2023-05-02T01:52:37;13.09;102.96
75489;HTU21D;64069;46.396;48.102;2023-05-02T01:55:05;13.07;102.96
75489;HTU21D;64069;46.396;48.102;2023-05-02T01:57:40;13.07;102.97
75489;HTU21D;64069;46.396;48.102;2023-05-02T02:00:16;13.06;102.94
75489;HTU21D;64069;46.396;48.102;2023-05-02T02:02:44;13.07;102.90
75489;HTU21D;64069;46.396;48.102;2023-05-02T02:05:18;13.08;102.84
75489;HTU21D;64069;46.396;48.102;2023-05-02T02:07:52;13.06;102.80
75489;HTU21D;64069;46.396;48.102;2023-05-02T02:10:18;13.06;102.74
75489;HTU21D;64069;46.396;48.102;2023-05-02T02:12:53;13.05;102.68
75489;HTU21D;64069;46.396;48.102;2023-05-02T02:15:33;13.01;102.64
75489;HTU21D;64069;46.396;48.102;2023-05-02T02:18:12;12.99;102.63
75489;HTU21D;64069;46.396;48.102;2023-05-02T02:20:46;12.96;102.60
75489;HTU21D;64069;46.396;48.102;2023-05-02T02:23:22;12.96;102.56
75489;HTU21D;64069;46.396;48.102;2023-05-02T02:25:57;12.94;102.51
75489;HTU21D;64069;46.396;48.102;2023-05-02T02:28:23;12.94;102.50
75489;HTU21D;64069;46.396;48.102;2023-05-02T02:30:56;12.94;102.48
75489;HTU21D;64069;46.396;48.102;2023-05-02T02:33:29;12.96;102.44
75489;HTU21D;64069;46.396;48.102;2023-05-02T02:36:38;13.01;102.38
75489;HTU21D;64069;46.396;48.102;2023-05-02T02:44:59;13.14;101.97
75489;HTU21D;64069;46.396;48.102;2023-05-02T02:50:41;13.21;101.70
75489;HTU21D;64069;46.396;48.102;2023-05-02T02:53:19;13.22;101.58
75489;HTU21D;64069;46.396;48.102;2023-05-02T02:56:12;13.25;101.46
75489;HTU21D;64069;46.396;48.102;2023-05-02T02:59:01;13.29;101.32
75489;HTU21D;64069;46.396;48.102;2023-05-02T03:01:39;13.32;101.19
75489;HTU21D;64069;46.396;48.102;2023-05-02T03:04:15;13.35;101.04
75489;HTU21D;64069;46.396;48.102;2023-05-02T03:06:41;13.38;100.90
75489;HTU21D;64069;46.396;48.102;2023-05-02T03:09:16;13.45;100.59
75489;HTU21D;64069;46.396;48.102;2023-05-02T03:11:51;13.48;100.44
75489;HTU21D;64069;46.396;48.102;2023-05-02T03:14:17;13.48;100.25
75489;HTU21D;64069;46.396;48.102;2023-05-02T03:16:50;13.50;100.10
75489;HTU21D;64069;46.396;48.102;2023-05-02T03:19:23;13.53;99.96
75489;HTU21D;64069;46.396;48.102;2023-05-02T03:21:56;13.54;99.85
75489;HTU21D;64069;46.396;48.102;2023-05-02T03:24:22;13.56;99.67
75489;HTU21D;64069;46.396;48.102;2023-05-02T03:26:58;13.56;99.52
75489;HTU21D;64069;46.396;48.102;2023-05-02T03:29:37;13.59;99.40
75489;HTU21D;64069;46.396;48.102;2023-05-02T03:32:11;13.62;99.27
75489;HTU21D;64069;46.396;48.102;2023-05-02T03:34:38;13.66;99.14
75489;HTU21D;64069;46.396;48.102;2023-05-02T03:37:20;13.71;98.89
75489;HTU21D;64069;46.396;48.102;2023-05-02T03:39:55;13.78;98.69
75489;HTU21D;64069;46.396;48.102;2023-05-02T03:42:21;13.83;98.42
75489;HTU21D;64069;46.396;48.102;2023-05-02T03:44:54;13.93;97.91
75489;HTU21D;64069;46.396;48.102;2023-05-02T03:47:27;14.01;97.69
75489;HTU21D;64069;46.396;48.102;2023-05-02T03:50:07;14.11;97.49
75489;HTU21D;64069;46.396;48.102;2023-05-02T03:52:33;14.24;97.25
75489;HTU21D;64069;46.396;48.102;2023-05-02T03:55:06;14.38;96.97
75489;HTU21D;64069;46.396;48.102;2023-05-02T03:57:40;14.49;96.68
75489;HTU21D;64069;46.396;48.102;2023-05-02T04:00:08;14.54;96.39
75489;HTU21D;64069;46.396;48.102;2023-05-02T04:02:47;14.58;96.23
75489;HTU21D;64069;46.396;48.102;2023-05-02T04:05:19;14.62;96.09
75489;HTU21D;64069;46.396;48.102;2023-05-02T04:07:47;14.66;95.97
75489;HTU21D;64069;46.396;48.102;2023-05-02T04:10:13;14.66;95.66
75489;HTU21D;64069;46.396;48.102;2023-05-02T04:12:48;14.68;95.41
75489;HTU21D;64069;46.396;48.102;2023-05-02T04:15:16;14.69;95.26
75489;HTU21D;64069;46.396;48.102;2023-05-02T04:17:43;14.80;95.13
75489;HTU21D;64069;46.396;48.102;2023-05-02T04:20:11;14.93;94.83
75489;HTU21D;64069;46.396;48.102;2023-05-02T04:22:41;15.09;94.50
75489;HTU21D;64069;46.396;48.102;2023-05-02T04:25:08;15.17;94.07
75489;HTU21D;64069;46.396;48.102;2023-05-02T04:27:36;15.28;93.78
75489;HTU21D;64069;46.396;48.102;2023-05-02T04:30:05;15.34;93.55
75489;HTU21D;64069;46.396;48.102;2023-05-02T04:32:32;15.44;93.30
75489;HTU21D;64069;46.396;48.102;2023-05-02T04:35:00;15.42;92.75
75489;HTU21D;64069;46.396;48.102;2023-05-02T04:37:26;15.43;92.72
75489;HTU21D;64069;46.396;48.102;2023-05-02T04:39:59;15.38;92.19
75489;HTU21D;64069;46.396;48.102;2023-05-02T04:42:32;15.26;92.12
75489;HTU21D;64069;46.396;48.102;2023-05-02T04:45:06;15.33;92.04
75489;HTU21D;64069;46.396;48.102;2023-05-02T04:52:57;15.31;91.00
75489;HTU21D;64069;46.396;48.102;2023-05-02T04:55:31;15.45;90.95
75489;HTU21D;64069;46.396;48.102;2023-05-02T04:58:11;15.65;90.64
75489;HTU21D;64069;46.396;48.102;2023-05-02T05:00:39;15.71;90.06
75489;HTU21D;64069;46.396;48.102;2023-05-02T05:03:05;15.82;89.91
75489;HTU21D;64069;46.396;48.102;2023-05-02T05:05:31;15.98;89.66
75489;HTU21D;64069;46.396;48.102;2023-05-02T05:07:58;16.16;89.45
75489;HTU21D;64069;46.396;48.102;2023-05-02T05:10:27;16.42;89.09
75489;HTU21D;64069;46.396;48.102;2023-05-02T05:12:52;16.64;88.55
75489;HTU21D;64069;46.396;48.102;2023-05-02T05:15:19;16.73;88.38
75489;HTU21D;64069;46.396;48.102;2023-05-02T05:17:59;16.93;88.04
75489;HTU21D;64069;46.396;48.102;2023-05-02T05:20:31;17.07;87.75
75489;HTU21D;64069;46.396;48.102;2023-05-02T05:23:08;17.25;87.31
75489;HTU21D;64069;46.396;48.102;2023-05-02T05:25:34;17.50;86.88
75489;HTU21D;64069;46.396;48.102;2023-05-02T05:28:00;17.73;86.37
75489;HTU21D;64069;46.396;48.102;2023-05-02T05:30:27;17.90;85.73
75489;HTU21D;64069;46.396;48.102;2023-05-02T05:32:56;17.80;85.62
75489;HTU21D;64069;46.396;48.102;2023-05-02T05:35:25;17.70;85.78
75489;HTU21D;64069;46.396;48.102;2023-05-02T05:37:52;17.64;85.93
75489;HTU21D;64069;46.396;48.102;2023-05-02T05:40:19;17.67;85.77
75489;HTU21D;64069;46.396;48.102;2023-05-02T05:42:50;17.65;85.37
75489;HTU21D;64069;46.396;48.102;2023-05-02T05:45:23;17.54;85.49
75489;HTU21D;64069;46.396;48.102;2023-05-02T05:47:49;17.61;85.22
75489;HTU21D;64069;46.396;48.102;2023-05-02T05:50:16;17.68;84.74
75489;HTU21D;64069;46.396;48.102;2023-05-02T05:52:43;17.66;84.45
75489;HTU21D;64069;46.396;48.102;2023-05-02T05:55:13;17.75;84.37
75489;HTU21D;64069;46.396;48.102;2023-05-02T05:57:43;17.80;84.29
75489;HTU21D;64069;46.396;48.102;2023-05-02T06:00:10;17.81;84.19
75489;HTU21D;64069;46.396;48.102;2023-05-02T06:02:47;17.72;84.07
75489;HTU21D;64069;46.396;48.102;2023-05-02T06:05:23;17.62;84.23
75489;HTU21D;64069;46.396;48.102;2023-05-02T06:07:49;17.56;84.21
75489;HTU21D;64069;46.396;48.102;2023-05-02T06:10:15;17.52;84.34
75489;HTU21D;64069;46.396;48.102;2023-05-02T06:12:42;17.47;84.30
75489;HTU21D;64069;46.396;48.102;2023-05-02T06:15:10;17.40;84.37
75489;HTU21D;64069;46.396;48.102;2023-05-02T06:17:36;17.41;84.33
75489;HTU21D;64069;46.396;48.102;2023-05-02T06:20:03;17.41;84.38
75489;HTU21D;64069;46.396;48.102;2023-05-02T06:22:29;17.43;84.17
75489;HTU21D;64069;46.396;48.102;2023-05-02T06:24:55;17.35;84.09
75489;HTU21D;64069;46.396;48.102;2023-05-02T06:27:20;17.32;84.19
75489;HTU21D;64069;46.396;48.102;2023-05-02T06:29:50;17.31;84.26
75489;HTU21D;64069;46.396;48.102;2023-05-02T06:32:16;17.34;84.29
75489;HTU21D;64069;46.396;48.102;2023-05-02T06:34:41;17.30;84.07
75489;HTU21D;64069;46.396;48.102;2023-05-02T06:37:07;17.29;84.38
75489;HTU21D;64069;46.396;48.102;2023-05-02T06:39:33;17.29;84.16
75489;HTU21D;64069;46.396;48.102;2023-05-02T06:41:59;17.23;84.15
75489;HTU21D;64069;46.396;48.102;2023-05-02T06:44:27;17.16;84.07
75489;HTU21D;64069;46.396;48.102;2023-05-02T06:46:53;17.09;84.03
75489;HTU21D;64069;46.396;48.102;2023-05-02T06:49:21;17.05;84.03
75489;HTU21D;64069;46.396;48.102;2023-05-02T06:51:47;17.03;84.08
75489;HTU21D;64069;46.396;48.102;2023-05-02T06:54:13;17.07;84.03
75489;HTU21D;64069;46.396;48.102;2023-05-02T06:56:41;16.99;83.81
75489;HTU21D;64069;46.396;48.102;2023-05-02T06:59:07;16.90;83.93
75489;HTU21D;64069;46.396;48.102;2023-05-02T07:01:33;16.85;84.15
75489;HTU21D;64069;46.396;48.102;2023-05-02T07:04:00;16.81;84.26
75489;HTU21D;64069;46.396;48.102;2023-05-02T07:06:29;16.80;84.19
75489;HTU21D;64069;46.396;48.102;2023-05-02T07:08:55;16.76;84.19
75489;HTU21D;64069;46.396;48.102;2023-05-02T07:11:21;16.74;84.26
75489;HTU21D;64069;46.396;48.102;2023-05-02T07:13:48;16.74;84.19
75489;HTU21D;64069;46.396;48.102;2023-05-02T07:16:14;16.81;84.25
75489;HTU21D;64069;46.396;48.102;2023-05-02T07:18:41;16.85;84.07
75489;HTU21D;64069;46.396;48.102;2023-05-02T07:21:07;16.78;84.09
75489;HTU21D;64069;46.396;48.102;2023-05-02T07:23:33;16.67;84.40
75489;HTU21D;64069;46.396;48.102;2023-05-02T07:25:59;16.63;84.76
75489;HTU21D;64069;46.396;48.102;2023-05-02T07:28:25;16.58;84.93
75489;HTU21D;64069;46.396;48.102;2023-05-02T07:30:51;16.57;85.02
75489;HTU21D;64069;46.396;48.102;2023-05-02T07:33:17;16.58;84.97
75489;HTU21D;64069;46.396;48.102;2023-05-02T07:35:43;16.52;85.06
75489;HTU21D;64069;46.396;48.102;2023-05-02T07:38:09;16.52;85.22
75489;HTU21D;64069;46.396;48.102;2023-05-02T07:40:38;16.59;85.20
75489;HTU21D;64069;46.396;48.102;2023-05-02T07:43:04;16.62;85.08
75489;HTU21D;64069;46.396;48.102;2023-05-02T07:45:32;16.66;85.05
75489;HTU21D;64069;46.396;48.102;2023-05-02T07:47:58;16.70;84.97
75489;HTU21D;64069;46.396;48.102;2023-05-02T07:50:24;16.73;84.97
75489;HTU21D;64069;46.396;48.102;2023-05-02T07:52:53;16.72;84.93
75489;HTU21D;64069;46.396;48.102;2023-05-02T07:55:19;16.73;84.98
75489;HTU21D;64069;46.396;48.102;2023-05-02T07:57:46;16.70;85.02
75489;HTU21D;64069;46.396;48.102;2023-05-02T08:00:12;16.67;85.03
75489;HTU21D;64069;46.396;48.102;2023-05-02T08:02:40;16.60;85.13
75489;HTU21D;64069;46.396;48.102;2023-05-02T08:05:07;16.43;85.42
75489;HTU21D;64069;46.396;48.102;2023-05-02T08:07:33;16.29;85.95
75489;HTU21D;64069;46.396;48.102;2023-05-02T08:10:05;16.20;86.37
75489;HTU21D;64069;46.396;48.102;2023-05-02T08:12:31;16.22;86.58
75489;HTU21D;64069;46.396;48.102;2023-05-02T08:14:57;16.30;86.66
75489;HTU21D;64069;46.396;48.102;2023-05-02T08:17:23;16.31;86.64
75489;HTU21D;64069;46.396;48.102;2023-05-02T08:19:49;16.31;86.74
75489;HTU21D;64069;46.396;48.102;2023-05-02T08:22:15;16.37;86.83
75489;HTU21D;64069;46.396;48.102;2023-05-02T08:24:41;16.47;86.75
75489;HTU21D;64069;46.396;48.102;2023-05-02T08:27:06;16.57;86.62
75489;HTU21D;64069;46.396;48.102;2023-05-02T08:29:32;16.63;86.46
75489;HTU21D;64069;46.396;48.102;2023-05-02T08:31:58;16.65;86.41
75489;HTU21D;64069;46.396;48.102;2023-05-02T08:34:24;16.54;86.61
75489;HTU21D;64069;46.396;48.102;2023-05-02T08:36:50;16.49;86.98
75489;HTU21D;64069;46.396;48.102;2023-05-02T08:39:16;16.44;87.25
75489;HTU21D;64069;46.396;48.102;2023-05-02T08:41:42;16.41;87.47
75489;HTU21D;64069;46.396;48.102;2023-05-02T08:44:11;16.43;87.55
75489;HTU21D;64069;46.396;48.102;2023-05-02T08:46:40;16.46;87.64
75489;HTU21D;64069;46.396;48.102;2023-05-02T08:49:06;16.51;87.61
75489;HTU21D;64069;46.396;48.102;2023-05-02T08:51:35;16.57;87.54
75489;HTU21D;64069;46.396;48.102;2023-05-02T08:54:02;16.62;87.42
75489;HTU21D;64069;46.396;48.102;2023-05-02T08:56:28;16.63;87.30
75489;HTU21D;64069;46.396;48.102;2023-05-02T08:58:54;16.62;87.26
75489;HTU21D;64069;46.396;48.102;2023-05-02T09:01:22;16.62;87.28
75489;HTU21D;64069;46.396;48.102;2023-05-02T09:03:49;16.71;87.24
75489;HTU21D;64069;46.396;48.102;2023-05-02T09:06:17;16.84;87.02
75489;HTU21D;64069;46.396;48.102;2023-05-02T09:08:45;16.95;86.70
75489;HTU21D;64069;46.396;48.102;2023-05-02T09:11:16;17.02;86.45
75489;HTU21D;64069;46.396;48.102;2023-05-02T09:13:47;17.11;86.38
75489;HTU21D;64069;46.396;48.102;2023-05-02T09:16:16;17.21;86.12
75489;HTU21D;64069;46.396;48.102;2023-05-02T09:18:50;17.22;86.04
75489;HTU21D;64069;46.396;48.102;2023-05-02T09:21:19;17.31;85.94
75489;HTU21D;64069;46.396;48.102;2023-05-02T09:23:47;17.33;85.77
75489;HTU21D;64069;46.396;48.102;2023-05-02T09:26:25;17.36;85.61
75489;HTU21D;64069;46.396;48.102;2023-05-02T09:29:02;17.37;85.58
75489;HTU21D;64069;46.396;48.102;2023-05-02T09:31:33;17.36;85.38
75489;HTU21D;64069;46.396;48.102;2023-05-02T09:34:16;17.38;85.47
75489;HTU21D;64069;46.396;48.102;2023-05-02T09:36:48;17.40;85.24
75489;HTU21D;64069;46.396;48.102;2023-05-02T09:39:26;17.38;85.16
75489;HTU21D;64069;46.396;48.102;2023-05-02T09:41:59;17.35;85.06
75489;HTU21D;64069;46.396;48.102;2023-05-02T09:44:34;17.33;85.01
75489;HTU21D;64069;46.396;48.102;2023-05-02T09:47:00;17.33;84.95
75489;HTU21D;64069;46.396;48.102;2023-05-02T09:52:10;17.30;84.90
75489;HTU21D;64069;46.396;48.102;2023-05-02T09:54:36;17.25;84.97
75489;HTU21D;64069;46.396;48.102;2023-05-02T09:57:02;17.13;85.14
75489;HTU21D;64069;46.396;48.102;2023-05-02T09:59:29;16.90;85.70
75489;HTU21D;64069;46.396;48.102;2023-05-02T10:01:56;16.63;86.35
75489;HTU21D;64069;46.396;48.102;2023-05-02T10:04:23;16.37;87.36
75489;HTU21D;64069;46.396;48.102;2023-05-02T10:06:53;16.21;88.26
75489;HTU21D;64069;46.396;48.102;2023-05-02T10:09:20;16.15;88.67
75489;HTU21D;64069;46.396;48.102;2023-05-02T10:11:50;16.08;89.10
75489;HTU21D;64069;46.396;48.102;2023-05-02T10:14:23;15.99;89.41
75489;HTU21D;64069;46.396;48.102;2023-05-02T10:22:11;15.83;90.46
75489;HTU21D;64069;46.396;48.102;2023-05-02T10:24:37;15.84;90.61
75489;HTU21D;64069;46.396;48.102;2023-05-02T10:27:08;15.89;90.59
75489;HTU21D;64069;46.396;48.102;2023-05-02T10:29:35;15.90;90.60
75489;HTU21D;64069;46.396;48.102;2023-05-02T10:32:02;15.93;90.68
75489;HTU21D;64069;46.396;48.102;2023-05-02T10:34:31;16.00;90.57
75489;HTU21D;64069;46.396;48.102;2023-05-02T10:36:57;16.04;90.47
75489;HTU21D;64069;46.396;48.102;2023-05-02T10:39:30;16.08;90.44
75489;HTU21D;64069;46.396;48.102;2023-05-02T10:41:58;16.14;90.41
75489;HTU21D;64069;46.396;48.102;2023-05-02T10:44:37;16.15;90.45
75489;HTU21D;64069;46.396;48.102;2023-05-02T10:47:24;16.17;90.42
75489;HTU21D;64069;46.396;48.102;2023-05-02T10:49:56;16.20;90.31
75489;HTU21D;64069;46.396;48.102;2023-05-02T10:52:32;16.21;90.20
75489;HTU21D;64069;46.396;48.102;2023-05-02T10:55:15;16.24;90.04
75489;HTU21D;64069;46.396;48.102;2023-05-02T11:00:25;16.32;89.36
75489;HTU21D;64069;46.396;48.102;2023-05-02T11:02:51;16.36;89.14
75489;HTU21D;64069;46.396;48.102;2023-05-02T11:05:17;16.45;89.02
75489;HTU21D;64069;46.396;48.102;2023-05-02T11:07:47;16.52;88.78
75489;HTU21D;64069;46.396;48.102;2023-05-02T11:12:50;16.61;88.26
75489;HTU21D;64069;46.396;48.102;2023-05-02T11:17:59;16.59;88.05
75489;HTU21D;64069;46.396;48.102;2023-05-02T11:20:30;16.56;88.07
75489;HTU21D;64069;46.396;48.102;2023-05-02T11:25:44;16.51;88.36
75489;HTU21D;64069;46.396;48.102;2023-05-02T11:31:08;16.46;88.54
75489;HTU21D;64069;46.396;48.102;2023-05-02T11:33:38;16.48;88.57
75489;HTU21D;64069;46.396;48.102;2023-05-02T11:36:04;16.45;88.60
75489;HTU21D;64069;46.396;48.102;2023-05-02T11:38:36;16.39;88.80
75489;HTU21D;64069;46.396;48.102;2023-05-02T11:41:06;16.35;88.96
75489;HTU21D;64069;46.396;48.102;2023-05-02T11:43:32;16.28;89.04
75489;HTU21D;64069;46.396;48.102;2023-05-02T11:45:59;16.21;89.14
75489;HTU21D;64069;46.396;48.102;2023-05-02T11:48:27;16.15;89.26
75489;HTU21D;64069;46.396;48.102;2023-05-02T11:50:58;16.11;89.38
75489;HTU21D;64069;46.396;48.102;2023-05-02T11:53:28;16.10;89.38
75489;HTU21D;64069;46.396;48.102;2023-05-02T11:55:59;16.07;89.34
75489;HTU21D;64069;46.396;48.102;2023-05-02T11:58:27;16.06;89.34
75489;HTU21D;64069;46.396;48.102;2023-05-02T12:01:12;16.04;89.33
75489;HTU21D;64069;46.396;48.102;2023-05-02T12:03:39;16.03;89.28
75489;HTU21D;64069;46.396;48.102;2023-05-02T12:06:10;16.04;89.28
75489;HTU21D;64069;46.396;48.102;2023-05-02T12:08:36;16.04;89.31
75489;HTU21D;64069;46.396;48.102;2023-05-02T12:11:02;16.05;89.36
75489;HTU21D;64069;46.396;48.102;2023-05-02T12:13:29;16.10;89.33
75489;HTU21D;64069;46.396;48.102;2023-05-02T12:15:58;16.11;89.33
75489;HTU21D;64069;46.396;48.102;2023-05-02T12:18:25;16.11;89.35
75489;HTU21D;64069;46.396;48.102;2023-05-02T12:20:52;16.07;89.47
75489;HTU21D;64069;46.396;48.102;2023-05-02T12:23:20;16.05;89.54
75489;HTU21D;64069;46.396;48.102;2023-05-02T12:25:46;16.04;89.54
75489;HTU21D;64069;46.396;48.102;2023-05-02T12:28:13;16.04;89.54
75489;HTU21D;64069;46.396;48.102;2023-05-02T12:30:39;16.05;89.51
75489;HTU21D;64069;46.396;48.102;2023-05-02T12:33:09;16.06;89.51
75489;HTU21D;64069;46.396;48.102;2023-05-02T12:35:35;16.07;89.51
75489;HTU21D;64069;46.396;48.102;2023-05-02T12:38:10;16.12;89.47
75489;HTU21D;64069;46.396;48.102;2023-05-02T12:40:36;16.14;89.41
75489;HTU21D;64069;46.396;48.102;2023-05-02T12:43:03;16.19;89.26
75489;HTU21D;64069;46.396;48.102;2023-05-02T12:45:31;16.24;89.12
75489;HTU21D;64069;46.396;48.102;2023-05-02T12:48:01;16.26;89.07
75489;HTU21D;64069;46.396;48.102;2023-05-02T12:50:37;16.31;89.04
75489;HTU21D;64069;46.396;48.102;2023-05-02T12:53:05;16.37;88.94
75489;HTU21D;64069;46.396;48.102;2023-05-02T12:55:32;16.44;88.82
75489;HTU21D;64069;46.396;48.102;2023-05-02T12:58:05;16.49;88.78
75489;HTU21D;64069;46.396;48.102;2023-05-02T13:00:34;16.54;88.65
75489;HTU21D;64069;46.396;48.102;2023-05-02T13:03:01;16.60;88.60
75489;HTU21D;64069;46.396;48.102;2023-05-02T13:05:33;16.62;88.57
75489;HTU21D;64069;46.396;48.102;2023-05-02T13:08:00;16.67;88.54
75489;HTU21D;64069;46.396;48.102;2023-05-02T13:10:26;16.67;88.43
75489;HTU21D;64069;46.396;48.102;2023-05-02T13:12:53;16.64;88.46
75489;HTU21D;64069;46.396;48.102;2023-05-02T13:15:19;16.61;88.57
75489;HTU21D;64069;46.396;48.102;2023-05-02T13:17:45;16.59;88.67
75489;HTU21D;64069;46.396;48.102;2023-05-02T13:20:11;16.51;88.77
75489;HTU21D;64069;46.396;48.102;2023-05-02T13:22:37;16.41;89.05
75489;HTU21D;64069;46.396;48.102;2023-05-02T13:25:04;16.16;89.23
75489;HTU21D;64069;46.396;48.102;2023-05-02T13:27:31;15.88;90.23
75489;HTU21D;64069;46.396;48.102;2023-05-02T13:29:59;15.76;90.95
75489;HTU21D;64069;46.396;48.102;2023-05-02T13:32:27;15.73;91.30
75489;HTU21D;64069;46.396;48.102;2023-05-02T13:34:53;15.72;91.39
75489;HTU21D;64069;46.396;48.102;2023-05-02T13:37:20;15.74;91.45
75489;HTU21D;64069;46.396;48.102;2023-05-02T13:39:46;15.72;91.58
75489;HTU21D;64069;46.396;48.102;2023-05-02T13:42:12;15.70;91.72
75489;HTU21D;64069;46.396;48.102;2023-05-02T13:44:38;15.62;91.84
75489;HTU21D;64069;46.396;48.102;2023-05-02T13:47:03;15.49;92.19
75489;HTU21D;64069;46.396;48.102;2023-05-02T13:49:29;15.38;92.68
75489;HTU21D;64069;46.396;48.102;2023-05-02T13:51:56;15.33;93.16
75489;HTU21D;64069;46.396;48.102;2023-05-02T13:54:22;15.37;93.24
75489;HTU21D;64069;46.396;48.102;2023-05-02T13:56:48;15.43;93.46
75489;HTU21D;64069;46.396;48.102;2023-05-02T13:59:15;15.49;93.39
75489;HTU21D;64069;46.396;48.102;2023-05-02T14:01:40;15.57;93.25
75489;HTU21D;64069;46.396;48.102;2023-05-02T14:04:07;15.65;93.10
75489;HTU21D;64069;46.396;48.102;2023-05-02T14:06:34;15.72;92.93
75489;HTU21D;64069;46.396;48.102;2023-05-02T14:09:00;15.76;92.81
75489;HTU21D;64069;46.396;48.102;2023-05-02T14:11:26;15.82;92.65
75489;HTU21D;64069;46.396;48.102;2023-05-02T14:13:52;15.85;92.55
75489;HTU21D;64069;46.396;48.102;2023-05-02T14:16:18;15.88;92.53
75489;HTU21D;64069;46.396;48.102;2023-05-02T14:18:44;15.87;92.47
75489;HTU21D;64069;46.396;48.102;2023-05-02T14:21:11;15.87;92.47
75489;HTU21D;64069;46.396;48.102;2023-05-02T14:23:36;15.88;92.51
75489;HTU21D;64069;46.396;48.102;2023-05-02T14:26:03;15.89;92.55
75489;HTU21D;64069;46.396;48.102;2023-05-02T14:28:30;15.86;92.56
75489;HTU21D;64069;46.396;48.102;2023-05-02T14:30:56;15.87;92.59
75489;HTU21D;64069;46.396;48.102;2023-05-02T14:33:22;15.87;92.65
75489;HTU21D;64069;46.396;48.102;2023-05-02T14:35:48;15.88;92.68
75489;HTU21D;64069;46.396;48.102;2023-05-02T14:38:14;15.86;92.72
75489;HTU21D;64069;46.396;48.102;2023-05-02T14:40:43;15.87;92.70
75489;HTU21D;64069;46.396;48.102;2023-05-02T14:43:09;15.86;92.63
75489;HTU21D;64069;46.396;48.102;2023-05-02T14:45:36;15.86;92.58
75489;HTU21D;64069;46.396;48.102;2023-05-02T14:48:02;15.82;92.48
75489;HTU21D;64069;46.396;48.102;2023-05-02T14:50:28;15.80;92.36
75489;HTU21D;64069;46.396;48.102;2023-05-02T14:52:54;15.76;92.26
75489;HTU21D;64069;46.396;48.102;2023-05-02T14:55:20;15.73;92.12
75489;HTU21D;64069;46.396;48.102;2023-05-02T14:57:46;15.72;92.05
75489;HTU21D;64069;46.396;48.102;2023-05-02T15:00:19;15.71;92.01
75489;HTU21D;64069;46.396;48.102;2023-05-02T15:02:45;15.71;91.98
75489;HTU21D;64069;46.396;48.102;2023-05-02T15:05:12;15.70;91.91
75489;HTU21D;64069;46.396;48.102;2023-05-02T15:07:38;15.65;91.83
75489;HTU21D;64069;46.396;48.102;2023-05-02T15:10:04;15.57;91.72
75489;HTU21D;64069;46.396;48.102;2023-05-02T15:12:30;15.53;91.71
75489;HTU21D;64069;46.396;48.102;2023-05-02T15:14:56;15.48;91.60
75489;HTU21D;64069;46.396;48.102;2023-05-02T15:17:22;15.41;91.56
75489;HTU21D;64069;46.396;48.102;2023-05-02T15:19:52;15.32;91.54
75489;HTU21D;64069;46.396;48.102;2023-05-02T15:22:18;15.27;91.56
75489;HTU21D;64069;46.396;48.102;2023-05-02T15:24:45;15.23;91.56
75489;HTU21D;64069;46.396;48.102;2023-05-02T15:27:10;15.17;91.60
75489;HTU21D;64069;46.396;48.102;2023-05-02T15:29:36;15.14;91.64
75489;HTU21D;64069;46.396;48.102;2023-05-02T15:32:02;15.10;91.70
75489;HTU21D;64069;46.396;48.102;2023-05-02T15:34:28;15.07;91.71
75489;HTU21D;64069;46.396;48.102;2023-05-02T15:36:54;15.04;91.72
75489;HTU21D;64069;46.396;48.102;2023-05-02T15:39:21;15.03;91.67
75489;HTU21D;64069;46.396;48.102;2023-05-02T15:41:49;15.03;91.63
75489;HTU21D;64069;46.396;48.102;2023-05-02T15:44:15;15.01;91.56
75489;HTU21D;64069;46.396;48.102;2023-05-02T15:46:41;15.00;91.50
75489;HTU21D;64069;46.396;48.102;2023-05-02T15:49:11;15.00;91.47
75489;HTU21D;64069;46.396;48.102;2023-05-02T15:51:41;15.01;91.37
75489;HTU21D;64069;46.396;48.102;2023-05-02T15:54:07;15.00;91.31
75489;HTU21D;64069;46.396;48.102;2023-05-02T15:56:37;14.99;91.24
75489;HTU21D;64069;46.396;48.102;2023-05-02T15:59:03;14.99;91.19